首页
METAR-TAF:

METAR-TAF

机场 :

Saginaw County H.W. Browne Airport

Saginaw, 密歇根州, 美国

纬度: 43-26-00N, 经度: 083-51-45W, 海拔: 183米

当前天气观测

该预报发布于9分钟前的22:38 UTC
风速7节,风向西
温度 28°C
湿度 42%
气压 1017 hPa
能見度: 16.1公里
散云层高于6500英尺

METAR: KHYX 262238Z AUTO 26007KT 10SM SCT065 28/14 A3004 RMK AO2

时间: 18:47 (22:47 UTC)


TAF: 丢失

超过4000个机场的气象观测和天气预报(METAR&TAF报告)。

可查询的气象台以黄色和红色小点在地图上表示。

将鼠标移到小点上方,可查看气象台名称。

然后点击查看天气观测和预报。

如需切换地图:点击带黑十字的绿色按钮放大地图;点击带横线的绿色按钮缩小地图;或者点击绿色箭头查看邻近地区的地图。


METAR-TAF: